Time;durP1;ratioP1;P1;durP2;ratioP2;P2;SDS_P1;SDS_P2;PMS_P1;PMS_P2;Temp;Humidity;BMP_temperature;BMP_pressure;BME280_temperature;BME280_humidity;BME280_pressure;Samples;Min_cycle;Max_cycle;Signal;HPM_P1;HPM_P2
2023/09/12 00:00:18;;;;;;;5.63;2.08;;;;;;;15.15;53.69;94967.16;5032984;28;20538;-76
2023/09/12 00:02:44;;;;;;;2.80;2.10;;;;;;;14.98;54.15;94966.19;5049474;28;20406;-76
2023/09/12 00:05:09;;;;;;;4.57;2.30;;;;;;;14.99;54.68;94973.09;5051285;28;20032;-77
2023/09/12 00:07:36;;;;;;;4.38;2.28;;;;;;;14.95;55.29;94962.06;5067419;28;20028;-76
2023/09/12 00:10:01;;;;;;;3.95;2.30;;;;;;;14.82;55.86;94959.03;5048087;28;20399;-76
2023/09/12 00:12:27;;;;;;;3.50;2.38;;;;;;;14.82;55.95;94961.66;5035901;28;20047;-77
2023/09/12 00:14:53;;;;;;;3.25;2.20;;;;;;;14.87;55.68;94967.22;5070220;28;20025;-75
2023/09/12 00:17:18;;;;;;;5.28;2.67;;;;;;;14.82;56.24;94968.66;5036286;28;20066;-77
2023/09/12 00:19:44;;;;;;;5.40;2.35;;;;;;;14.80;56.12;94970.63;5052552;28;20036;-77
2023/09/12 00:22:09;;;;;;;6.32;2.47;;;;;;;14.63;56.77;94954.78;5052774;28;20114;-76
2023/09/12 00:24:35;;;;;;;4.18;2.35;;;;;;;14.65;57.09;94957.22;5069689;28;20494;-76
2023/09/12 00:27:00;;;;;;;3.13;2.47;;;;;;;14.58;57.37;94956.19;5069413;28;20051;-76
2023/09/12 00:29:25;;;;;;;3.88;2.25;;;;;;;14.55;57.84;94977.41;5052929;28;20021;-76
2023/09/12 00:31:51;;;;;;;3.75;2.33;;;;;;;14.48;58.67;94972.69;5069808;28;20036;-77
2023/09/12 00:34:17;;;;;;;5.85;3.13;;;;;;;14.43;58.91;94989.78;5069526;28;20017;-76
2023/09/12 00:36:42;;;;;;;4.80;2.80;;;;;;;14.34;59.14;94980.22;5069810;28;20121;-76
2023/09/12 00:39:08;;;;;;;4.93;2.38;;;;;;;14.07;59.78;94950.53;5069356;28;20054;-76
2023/09/12 00:41:33;;;;;;;3.72;2.40;;;;;;;14.19;60.02;94974.66;5067971;28;20510;-76
2023/09/12 00:43:58;;;;;;;4.00;2.10;;;;;;;14.16;59.95;94988.84;5069447;28;20031;-76
2023/09/12 00:46:24;;;;;;;3.88;2.60;;;;;;;13.98;60.41;94985.34;5069686;28;20086;-76
2023/09/12 00:48:49;;;;;;;5.05;2.42;;;;;;;14.06;60.09;94988.06;5052837;28;20032;-77
2023/09/12 00:51:15;;;;;;;2.97;2.35;;;;;;;13.97;60.02;94989.72;5069888;28;20045;-77
2023/09/12 00:53:40;;;;;;;4.95;2.55;;;;;;;13.81;60.26;94979.06;5069328;28;20031;-76
2023/09/12 00:56:05;;;;;;;5.25;2.35;;;;;;;13.84;60.23;94984.81;5052409;28;20032;-76
2023/09/12 00:58:31;;;;;;;3.65;2.40;;;;;;;13.83;59.59;94980.56;5036061;28;20036;-76
2023/09/12 01:00:57;;;;;;;3.92;2.30;;;;;;;13.85;59.54;94990.91;5052233;28;20051;-76
2023/09/12 01:03:22;;;;;;;4.05;2.33;;;;;;;13.84;59.73;94989.22;5069271;28;20020;-76
2023/09/12 01:05:48;;;;;;;5.40;2.40;;;;;;;13.80;59.31;94980.03;5035967;28;20094;-76
2023/09/12 01:08:13;;;;;;;3.10;2.22;;;;;;;13.83;59.10;94991.03;5052769;28;20024;-76
2023/09/12 01:10:39;;;;;;;3.55;2.38;;;;;;;13.92;58.98;94988.53;5052335;28;20037;-77
2023/09/12 01:13:04;;;;;;;2.88;2.20;;;;;;;14.00;58.89;94994.66;5052802;28;20032;-76
2023/09/12 01:15:30;;;;;;;4.95;2.65;;;;;;;13.95;59.37;94991.66;5052545;28;20387;-76
2023/09/12 01:17:56;;;;;;;4.30;2.40;;;;;;;13.97;58.67;95001.97;5070213;28;20472;-76
2023/09/12 01:20:27;;;;;;;5.05;2.40;;;;;;;13.93;58.29;94992.78;5052577;28;20036;-76
2023/09/12 01:22:55;;;;;;;7.70;2.30;;;;;;;13.94;57.94;94989.22;5036029;28;20119;-77
2023/09/12 01:25:20;;;;;;;3.50;2.28;;;;;;;13.83;57.38;94998.84;5052337;28;20112;-76
2023/09/12 01:27:47;;;;;;;4.03;2.35;;;;;;;13.72;57.80;94999.03;5070671;28;20466;-76
2023/09/12 01:30:12;;;;;;;5.07;2.42;;;;;;;13.61;58.22;94993.97;5070342;28;20028;-76
2023/09/12 01:32:38;;;;;;;2.95;2.00;;;;;;;13.65;57.91;94995.34;5070295;28;20513;-76
2023/09/12 01:35:03;;;;;;;3.38;2.22;;;;;;;13.79;57.19;95000.13;5051665;28;20089;-76
2023/09/12 01:37:32;;;;;;;3.22;2.13;;;;;;;13.83;56.99;94998.84;5052520;28;20051;-76
2023/09/12 01:39:57;;;;;;;6.75;2.40;;;;;;;13.85;57.14;94996.13;5052306;28;20159;-76
2023/09/12 01:42:23;;;;;;;3.65;2.33;;;;;;;13.95;57.25;95003.91;5069263;28;20104;-76
2023/09/12 01:44:55;;;;;;;4.28;2.20;;;;;;;13.96;58.01;94995.13;5052268;28;20033;-76
2023/09/12 01:47:21;;;;;;;5.70;2.28;;;;;;;14.09;57.20;94995.59;5069005;28;20032;-76
2023/09/12 01:49:47;;;;;;;3.42;2.22;;;;;;;13.97;58.08;94978.47;5035578;28;20495;-76
2023/09/12 01:52:13;;;;;;;3.80;2.00;;;;;;;13.91;57.04;95005.16;5035951;28;20035;-76
2023/09/12 01:54:39;;;;;;;5.35;2.65;;;;;;;13.78;57.04;94990.63;5036087;28;20036;-77
2023/09/12 01:57:04;;;;;;;3.20;2.17;;;;;;;13.75;57.12;95001.34;5055895;28;20422;-75
2023/09/12 01:59:30;;;;;;;2.95;2.15;;;;;;;13.75;57.80;95003.16;5055866;28;20063;-76
2023/09/12 02:01:55;;;;;;;3.40;2.05;;;;;;;13.71;57.70;94994.78;5055591;28;20037;-76
2023/09/12 02:04:21;;;;;;;3.30;1.90;;;;;;;13.75;58.61;94993.53;5039085;28;20040;-77
2023/09/12 02:06:46;;;;;;;5.53;2.15;;;;;;;13.68;58.46;95002.06;5055798;28;20028;-77
2023/09/12 02:09:11;;;;;;;5.38;2.10;;;;;;;13.38;58.89;95001.31;5071951;28;20097;-76
2023/09/12 02:11:37;;;;;;;5.22;2.08;;;;;;;13.34;59.29;95000.72;5055618;28;20033;-77
2023/09/12 02:14:02;;;;;;;4.90;2.40;;;;;;;13.39;59.42;95008.97;5055490;28;20028;-76
2023/09/12 02:16:29;;;;;;;3.40;2.20;;;;;;;13.27;59.96;95006.66;5072407;28;20032;-76
2023/09/12 02:18:54;;;;;;;3.25;2.00;;;;;;;13.34;60.13;95024.22;5071981;28;20029;-77
2023/09/12 02:21:20;;;;;;;7.55;2.80;;;;;;;13.21;59.26;95002.81;5055422;28;20039;-77
2023/09/12 02:23:45;;;;;;;3.58;2.25;;;;;;;13.12;59.48;95004.47;5071966;28;20078;-76
2023/09/12 02:26:11;;;;;;;4.95;2.53;;;;;;;13.22;59.32;95019.28;5073240;28;20024;-76
2023/09/12 02:28:36;;;;;;;5.40;2.45;;;;;;;13.18;59.70;95022.16;5073115;28;20025;-76
2023/09/12 02:31:01;;;;;;;2.97;2.40;;;;;;;13.25;59.34;95011.16;5071835;28;20113;-76
2023/09/12 02:33:27;;;;;;;6.18;2.70;;;;;;;13.22;59.44;95021.88;5071245;28;20509;-76
2023/09/12 02:35:52;;;;;;;4.10;2.60;;;;;;;13.17;59.82;95024.88;5054594;28;20123;-76
2023/09/12 02:38:18;;;;;;;4.82;2.78;;;;;;;13.10;60.13;95008.97;5038331;28;20482;-76
2023/09/12 02:40:43;;;;;;;4.43;2.22;;;;;;;13.03;60.58;95014.88;5054526;28;20055;-75
2023/09/12 02:43:09;;;;;;;5.28;2.50;;;;;;;13.10;60.18;95010.78;5071020;28;20036;-76
2023/09/12 02:45:34;;;;;;;4.00;2.60;;;;;;;13.08;60.60;95017.91;5071494;28;20029;-76
2023/09/12 02:47:59;;;;;;;2.97;2.00;;;;;;;13.04;60.82;95016.50;5071747;28;20514;-76
2023/09/12 02:50:25;;;;;;;5.57;2.38;;;;;;;12.94;60.73;95003.47;5071241;28;20044;-76
2023/09/12 02:52:50;;;;;;;3.85;2.30;;;;;;;12.96;60.97;95012.81;5054637;28;20043;-77
2023/09/12 02:55:16;;;;;;;4.40;2.22;;;;;;;13.04;61.06;95024.34;5054748;28;20506;-76
2023/09/12 02:57:41;;;;;;;3.55;2.38;;;;;;;12.83;61.63;95009.66;5070932;28;20044;-76
2023/09/12 03:00:08;;;;;;;5.93;2.50;;;;;;;12.80;61.80;95015.13;5054619;28;20028;-76
2023/09/12 03:02:34;;;;;;;4.00;2.53;;;;;;;12.85;61.70;95018.16;5055024;28;20029;-76
2023/09/12 03:05:01;;;;;;;3.08;2.42;;;;;;;12.52;62.28;94988.06;5053095;28;20044;-76
2023/09/12 03:07:26;;;;;;;3.63;2.58;;;;;;;12.76;62.18;95021.59;5054417;28;20093;-76
2023/09/12 03:09:52;;;;;;;3.38;2.47;;;;;;;12.65;62.45;95021.72;5054433;28;20025;-76
2023/09/12 03:12:17;;;;;;;3.60;2.35;;;;;;;12.65;62.81;95016.50;5054450;28;20188;-76
2023/09/12 03:14:43;;;;;;;3.67;2.60;;;;;;;12.65;62.50;95012.09;5051251;28;20037;-77
2023/09/12 03:17:08;;;;;;;3.72;2.30;;;;;;;12.67;62.93;95019.78;5070274;28;20051;-76
2023/09/12 03:19:33;;;;;;;4.80;2.38;;;;;;;12.63;62.63;95008.00;5070993;28;20016;-76
2023/09/12 03:21:59;;;;;;;6.85;2.55;;;;;;;12.65;62.47;95021.72;5063195;28;20411;-76
2023/09/12 03:24:25;;;;;;;3.47;2.40;;;;;;;12.52;62.58;95001.91;5033121;28;20029;-76
2023/09/12 03:26:51;;;;;;;3.90;2.35;;;;;;;12.56;62.70;95027.72;5065035;28;20032;-77
2023/09/12 03:29:16;;;;;;;3.47;2.47;;;;;;;12.59;62.62;95027.44;5054275;28;20025;-76
2023/09/12 03:31:42;;;;;;;4.20;2.30;;;;;;;12.50;62.39;95003.84;5054327;28;20041;-76
2023/09/12 03:34:07;;;;;;;4.50;2.40;;;;;;;12.43;62.51;95017.56;5071894;28;20029;-76
2023/09/12 03:36:32;;;;;;;3.70;2.20;;;;;;;12.37;62.83;95023.25;5070570;28;20039;-76
2023/09/12 03:38:58;;;;;;;3.67;2.08;;;;;;;12.40;62.85;95036.06;5039861;28;20036;-76
2023/09/12 03:41:25;;;;;;;3.75;2.35;;;;;;;12.39;62.71;95035.22;5050677;28;20037;-76
2023/09/12 03:43:53;;;;;;;6.20;2.47;;;;;;;12.35;63.00;95040.84;5056537;28;20501;-76
2023/09/12 03:46:18;;;;;;;3.60;2.33;;;;;;;12.37;63.03;95044.97;5053979;28;20032;-76
2023/09/12 03:48:43;;;;;;;3.85;2.47;;;;;;;12.39;63.09;95037.81;5070385;28;20044;-76
2023/09/12 03:51:09;;;;;;;6.10;2.67;;;;;;;12.38;63.09;95043.16;5053776;28;20486;-76
2023/09/12 03:53:34;;;;;;;3.95;2.38;;;;;;;12.32;63.11;95041.09;5053713;28;20063;-76
2023/09/12 03:56:00;;;;;;;4.18;2.50;;;;;;;12.16;63.31;95028.56;5053527;28;20032;-77
2023/09/12 03:58:25;;;;;;;4.15;2.72;;;;;;;12.39;62.84;95043.03;5070054;28;20021;-76
2023/09/12 04:00:51;;;;;;;3.70;2.53;;;;;;;12.32;62.77;95047.13;5070073;28;20040;-76
2023/09/12 04:03:16;;;;;;;4.45;2.17;;;;;;;12.36;62.96;95039.88;5070293;28;20024;-77
2023/09/12 04:05:42;;;;;;;3.10;2.25;;;;;;;12.43;62.22;95047.03;5070972;28;20020;-76
2023/09/12 04:08:07;;;;;;;4.15;2.40;;;;;;;12.42;62.15;95042.75;5069479;28;20032;-76
2023/09/12 04:10:32;;;;;;;7.32;2.97;;;;;;;12.29;62.69;95043.00;5066136;28;20028;-80
2023/09/12 04:12:58;;;;;;;6.43;2.72;;;;;;;12.32;62.67;95031.50;5063466;28;20551;-81
2023/09/12 04:15:23;;;;;;;3.28;2.20;;;;;;;12.31;62.88;95040.25;5031505;28;20052;-79
2023/09/12 04:17:49;;;;;;;3.38;2.20;;;;;;;12.23;63.24;95040.94;5064058;28;20040;-81
2023/09/12 04:20:14;;;;;;;5.35;2.60;;;;;;;12.22;63.29;95025.41;5033411;28;20415;-80
2023/09/12 04:22:42;;;;;;;3.88;2.65;;;;;;;12.32;63.32;95038.50;5069153;28;20032;-81
2023/09/12 04:25:07;;;;;;;3.00;2.30;;;;;;;12.16;63.90;95037.19;5041360;28;20028;-80
2023/09/12 04:27:34;;;;;;;5.32;2.42;;;;;;;12.10;63.82;95019.50;5047971;28;20037;-77
2023/09/12 04:29:59;;;;;;;3.80;2.50;;;;;;;12.32;63.73;95047.13;5054572;28;20025;-78
2023/09/12 04:32:25;;;;;;;4.95;2.53;;;;;;;12.38;63.75;95041.38;5026864;28;20041;-77
2023/09/12 04:34:50;;;;;;;2.88;2.10;;;;;;;12.22;63.97;95038.44;5056086;28;20411;-78
2023/09/12 04:37:16;;;;;;;3.67;2.42;;;;;;;12.24;64.06;95049.56;5057844;28;20028;-78
2023/09/12 04:39:41;;;;;;;4.53;2.60;;;;;;;12.31;63.68;95050.66;5070237;28;20466;-78
2023/09/12 04:42:07;;;;;;;5.25;2.60;;;;;;;12.34;63.77;95049.59;5067720;28;20029;-77
2023/09/12 04:44:36;;;;;;;4.93;2.83;;;;;;;12.22;63.93;95034.06;5055047;28;20028;-76
2023/09/12 04:47:02;;;;;;;4.53;2.42;;;;;;;12.29;63.57;95048.22;5032185;28;20042;-78
2023/09/12 04:49:28;;;;;;;4.65;3.10;;;;;;;12.35;63.78;95059.88;5050448;28;20052;-77
2023/09/12 04:51:53;;;;;;;3.88;2.30;;;;;;;12.43;63.58;95048.81;5042921;28;20033;-77
2023/09/12 04:54:19;;;;;;;4.43;2.40;;;;;;;12.48;63.34;95052.66;5062470;28;20036;-78
2023/09/12 04:56:44;;;;;;;4.78;2.40;;;;;;;12.47;63.54;95048.41;5049307;28;20086;-78
2023/09/12 04:59:09;;;;;;;4.05;2.45;;;;;;;12.92;61.79;95040.09;5054192;28;20033;-78
2023/09/12 05:01:35;;;;;;;5.55;2.60;;;;;;;13.83;58.27;95035.41;5070320;28;20035;-78
2023/09/12 05:04:00;;;;;;;3.80;2.30;;;;;;;14.50;56.83;95043.13;5029369;28;20392;-78
2023/09/12 05:06:26;;;;;;;3.38;2.30;;;;;;;15.10;54.84;95029.56;5055059;28;20033;-78
2023/09/12 05:08:51;;;;;;;3.53;2.45;;;;;;;16.03;52.85;95049.16;5067956;28;20039;-78
2023/09/12 05:11:17;;;;;;;2.95;2.35;;;;;;;17.06;49.40;95037.78;5049855;28;20153;-78
2023/09/12 05:13:42;;;;;;;3.72;2.10;;;;;;;17.51;48.42;95047.81;5056615;28;20025;-78
2023/09/12 05:16:08;;;;;;;3.95;2.45;;;;;;;18.04;46.99;95045.69;5057894;28;20586;-77
2023/09/12 05:18:33;;;;;;;3.40;2.05;;;;;;;18.69;44.92;95055.19;5036632;28;20044;-78
2023/09/12 05:20:58;;;;;;;2.72;1.98;;;;;;;19.10;44.17;95045.28;5048688;28;20033;-78
2023/09/12 05:23:24;;;;;;;2.83;2.10;;;;;;;18.91;44.35;95051.81;5061838;28;20024;-78
2023/09/12 05:25:49;;;;;;;4.25;2.22;;;;;;;18.54;45.26;95047.19;5048249;28;20064;-78
2023/09/12 05:28:15;;;;;;;3.75;2.15;;;;;;;18.19;46.38;95046.66;5065225;28;20028;-78
2023/09/12 05:30:42;;;;;;;6.18;2.20;;;;;;;18.11;47.14;95051.94;5054619;28;20029;-78
2023/09/12 05:33:07;;;;;;;3.10;2.05;;;;;;;18.06;47.05;95049.78;5053505;28;20449;-78
2023/09/12 05:35:33;;;;;;;4.38;2.00;;;;;;;17.90;46.80;95027.97;5053835;28;20025;-78
2023/09/12 05:37:58;;;;;;;4.18;2.17;;;;;;;18.16;46.76;95044.34;5060459;28;20028;-78
2023/09/12 05:40:24;;;;;;;5.55;2.20;;;;;;;18.03;47.17;95059.81;5037101;28;20028;-76
2023/09/12 05:42:49;;;;;;;2.85;2.10;;;;;;;17.89;47.42;95047.38;5044790;28;20032;-78
2023/09/12 05:45:15;;;;;;;3.40;2.00;;;;;;;18.06;47.87;95062.13;5053834;28;20115;-78
2023/09/12 05:47:40;;;;;;;2.60;1.88;;;;;;;18.15;46.78;95058.47;5038399;28;20056;-78
2023/09/12 05:50:06;;;;;;;4.20;2.00;;;;;;;18.01;47.34;95056.53;5052180;28;20539;-77
2023/09/12 05:52:32;;;;;;;3.85;2.38;;;;;;;17.91;47.97;95050.63;5039742;28;20502;-78
2023/09/12 05:54:58;;;;;;;2.72;1.92;;;;;;;18.09;47.84;95056.53;5036436;28;20025;-78
2023/09/12 05:57:23;;;;;;;3.03;1.95;;;;;;;18.37;48.10;95056.13;5055029;28;20036;-78
2023/09/12 05:59:49;;;;;;;3.15;2.20;;;;;;;18.37;48.47;95050.88;5055449;28;20714;-78
2023/09/12 06:02:14;;;;;;;2.97;1.98;;;;;;;18.45;47.77;95053.47;5042082;28;20105;-78
2023/09/12 06:04:40;;;;;;;5.05;2.20;;;;;;;18.59;47.06;95046.69;5053509;28;20513;-78
2023/09/12 06:07:05;;;;;;;2.90;1.95;;;;;;;18.61;47.95;95042.06;5024354;28;20040;-77
2023/09/12 06:09:30;;;;;;;4.85;2.00;;;;;;;18.72;46.49;95054.84;5032611;28;20036;-78
2023/09/12 06:11:56;;;;;;;3.55;1.98;;;;;;;18.82;47.42;95055.47;5034322;28;20029;-78
2023/09/12 06:14:21;;;;;;;2.80;2.00;;;;;;;18.79;45.51;95052.38;5055440;28;20478;-78
2023/09/12 06:16:47;;;;;;;3.55;2.10;;;;;;;18.80;45.56;95046.13;5038332;28;20029;-78
2023/09/12 06:19:14;;;;;;;6.30;2.00;;;;;;;18.90;43.89;95059.91;5069360;28;20037;-78
2023/09/12 06:21:40;;;;;;;3.97;2.00;;;;;;;18.95;43.95;95054.94;5055231;28;20039;-79
2023/09/12 06:24:12;;;;;;;5.05;2.40;;;;;;;19.05;43.58;95060.78;5072955;28;20029;-78
2023/09/12 06:26:38;;;;;;;3.90;1.95;;;;;;;19.01;43.31;95056.88;5064314;28;20032;-78
2023/09/12 06:29:03;;;;;;;4.82;1.90;;;;;;;19.21;42.49;95054.63;5067421;28;20041;-78
2023/09/12 06:31:29;;;;;;;4.47;2.20;;;;;;;19.13;42.59;95066.00;5055167;28;20037;-78
2023/09/12 06:33:54;;;;;;;3.63;2.38;;;;;;;19.09;42.57;95061.28;5073015;28;20035;-78
2023/09/12 06:36:19;;;;;;;6.22;2.20;;;;;;;19.01;43.09;95075.31;5071508;28;20040;-78
2023/09/12 06:38:45;;;;;;;7.70;2.20;;;;;;;19.15;42.84;95065.84;5069365;28;20028;-78
2023/09/12 06:41:10;;;;;;;4.47;1.90;;;;;;;19.29;42.84;95077.44;5069107;28;20493;-78
2023/09/12 06:43:36;;;;;;;6.20;2.20;;;;;;;19.52;42.06;95072.19;5071561;28;20035;-78
2023/09/12 06:46:01;;;;;;;4.18;1.98;;;;;;;19.92;41.56;95068.47;5071986;28;20040;-78
2023/09/12 06:48:26;;;;;;;4.78;2.33;;;;;;;19.87;41.03;95073.44;5052986;28;20556;-78
2023/09/12 06:50:54;;;;;;;5.25;2.80;;;;;;;19.98;40.99;95073.00;5052937;28;20491;-77
2023/09/12 06:53:19;;;;;;;6.88;2.20;;;;;;;20.07;40.74;95076.38;5053196;28;20048;-77
2023/09/12 06:55:44;;;;;;;4.93;2.55;;;;;;;20.08;40.31;95084.09;5053745;28;20491;-77
2023/09/12 06:58:11;;;;;;;8.48;2.63;;;;;;;20.16;39.49;95074.50;5053823;28;20036;-78
2023/09/12 07:00:36;;;;;;;10.50;2.92;;;;;;;20.27;40.22;95079.31;5054846;28;20024;-78
2023/09/12 07:03:02;;;;;;;5.20;2.80;;;;;;;20.02;40.74;95084.00;5072894;28;20126;-78
2023/09/12 07:05:27;;;;;;;9.05;2.60;;;;;;;19.60;40.91;95070.31;5054682;28;20032;-78
2023/09/12 07:07:53;;;;;;;5.30;2.60;;;;;;;20.19;40.52;95067.03;5071339;28;20138;-78
2023/09/12 07:10:18;;;;;;;5.47;2.50;;;;;;;20.51;39.95;95083.53;5071128;28;20032;-77
2023/09/12 07:12:43;;;;;;;9.10;2.67;;;;;;;20.23;39.98;95075.41;5054691;28;20025;-78
2023/09/12 07:15:09;;;;;;;8.65;2.30;;;;;;;20.63;39.18;95081.28;5037809;28;20044;-77
2023/09/12 07:17:35;;;;;;;3.60;2.13;;;;;;;20.93;38.58;95074.97;5072699;28;20037;-78
2023/09/12 07:20:00;;;;;;;3.42;2.13;;;;;;;20.95;38.43;95072.97;5070908;28;20479;-78
2023/09/12 07:22:26;;;;;;;3.72;2.25;;;;;;;20.82;37.57;95079.91;5054446;28;20387;-77
2023/09/12 07:24:51;;;;;;;5.30;2.30;;;;;;;20.66;38.24;95080.91;5070820;28;20513;-77
2023/09/12 07:27:16;;;;;;;5.60;2.13;;;;;;;20.34;39.38;95084.69;5071041;28;20036;-77
2023/09/12 07:29:42;;;;;;;4.35;2.50;;;;;;;20.20;39.19;95078.41;5070803;28;20689;-76
2023/09/12 07:32:07;;;;;;;4.22;2.20;;;;;;;20.05;39.56;95052.00;5070697;28;20043;-77
2023/09/12 07:34:33;;;;;;;2.95;2.13;;;;;;;20.64;39.69;95075.00;5053985;28;20032;-77
2023/09/12 07:36:58;;;;;;;7.35;2.50;;;;;;;21.03;38.56;95082.59;5053990;28;20024;-77
2023/09/12 07:39:24;;;;;;;4.82;2.00;;;;;;;21.09;38.37;95075.75;5071877;28;20040;-77
2023/09/12 07:41:49;;;;;;;5.55;2.20;;;;;;;21.29;38.28;95078.63;5054288;28;20052;-77
2023/09/12 07:44:16;;;;;;;4.78;2.50;;;;;;;21.36;37.87;95066.31;5070670;28;20418;-77
2023/09/12 07:46:42;;;;;;;5.00;2.60;;;;;;;21.74;37.55;95079.31;5053975;28;20037;-77
2023/09/12 07:49:09;;;;;;;4.97;2.40;;;;;;;21.93;37.02;95073.38;5071510;28;20062;-77
2023/09/12 07:51:34;;;;;;;4.47;2.20;;;;;;;21.91;36.81;95069.28;5070548;28;20028;-77
2023/09/12 07:54:00;;;;;;;3.95;2.40;;;;;;;21.94;36.82;95058.34;5070811;28;20439;-77
2023/09/12 07:56:25;;;;;;;4.82;2.08;;;;;;;21.99;36.75;95062.03;5053608;28;20403;-76
2023/09/12 07:58:50;;;;;;;5.00;2.45;;;;;;;21.68;37.93;95064.22;5071470;28;20048;-77
2023/09/12 08:01:16;;;;;;;5.40;2.53;;;;;;;21.62;38.69;95063.97;5071455;28;20479;-77
2023/09/12 08:03:43;;;;;;;4.68;2.40;;;;;;;21.62;38.55;95063.97;5053703;28;20041;-77
2023/09/12 08:06:08;;;;;;;5.35;2.88;;;;;;;21.91;38.13;95059.53;5070139;28;20036;-77
2023/09/12 08:08:34;;;;;;;6.68;2.40;;;;;;;22.26;37.16;95060.44;5053516;28;20039;-77
2023/09/12 08:10:59;;;;;;;6.72;2.30;;;;;;;21.94;37.31;95060.97;5070176;28;20407;-77
2023/09/12 08:13:29;;;;;;;6.72;2.30;;;;;;;21.83;36.38;95068.41;5053648;28;20028;-75
2023/09/12 08:15:54;;;;;;;4.05;2.40;;;;;;;22.36;36.19;95052.16;5053402;28;20478;-77
2023/09/12 08:18:20;;;;;;;6.50;2.10;;;;;;;22.29;36.42;95065.34;5036627;28;20082;-77
2023/09/12 08:20:45;;;;;;;4.22;2.30;;;;;;;22.21;36.72;95060.19;5069878;28;20055;-77
2023/09/12 08:23:11;;;;;;;4.80;2.25;;;;;;;22.29;37.04;95073.28;5036685;28;20032;-77
2023/09/12 08:25:36;;;;;;;4.30;2.22;;;;;;;22.25;35.74;95065.91;5071118;28;20039;-77
2023/09/12 08:28:02;;;;;;;6.25;2.20;;;;;;;22.67;35.95;95064.13;5053145;28;20037;-78
2023/09/12 08:30:30;;;;;;;4.70;2.30;;;;;;;22.43;36.40;95057.50;5053018;28;20020;-77
2023/09/12 08:32:56;;;;;;;4.95;2.30;;;;;;;22.77;34.57;95056.66;5053520;28;20037;-78
2023/09/12 08:35:21;;;;;;;6.40;2.50;;;;;;;22.98;34.85;95055.75;5052921;28;20029;-78
2023/09/12 08:37:47;;;;;;;4.93;2.20;;;;;;;22.60;34.91;95032.34;5069970;28;20510;-77
2023/09/12 08:40:13;;;;;;;6.75;2.30;;;;;;;22.57;34.24;95026.63;5069656;28;20028;-78
2023/09/12 08:42:42;;;;;;;6.40;2.40;;;;;;;22.84;34.42;95054.03;5052946;28;20032;-77
2023/09/12 08:45:09;;;;;;;5.50;2.15;;;;;;;22.96;34.63;95044.56;5052927;28;20127;-78
2023/09/12 08:47:34;;;;;;;3.35;1.90;;;;;;;22.91;33.26;95044.28;5069725;28;20032;-78
2023/09/12 08:50:00;;;;;;;6.70;2.20;;;;;;;23.04;33.24;95033.78;5053082;28;20506;-78
2023/09/12 08:52:25;;;;;;;6.35;2.40;;;;;;;23.05;33.19;95032.75;5036474;28;20094;-77
2023/09/12 08:54:51;;;;;;;5.95;2.45;;;;;;;23.59;32.70;95037.16;5069713;28;20491;-78
2023/09/12 08:57:16;;;;;;;5.53;2.22;;;;;;;23.41;32.24;95034.28;5053114;28;20032;-78
2023/09/12 08:59:42;;;;;;;5.40;2.50;;;;;;;23.36;32.88;95036.72;5052901;28;20419;-78
2023/09/12 09:02:07;;;;;;;4.78;2.38;;;;;;;23.45;33.35;95037.34;5053035;28;20474;-77
2023/09/12 09:04:33;;;;;;;12.70;2.60;;;;;;;23.42;33.83;95035.91;5038255;28;20028;-78
2023/09/12 09:06:58;;;;;;;6.95;2.35;;;;;;;23.55;33.11;95041.25;5040552;28;20468;-78
2023/09/12 09:09:24;;;;;;;5.00;2.25;;;;;;;23.89;32.59;95036.81;5056994;28;20468;-77
2023/09/12 09:11:50;;;;;;;8.35;2.22;;;;;;;23.85;33.06;95041.69;5040652;28;20028;-77
2023/09/12 09:14:15;;;;;;;4.50;2.40;;;;;;;23.91;32.24;95039.25;5037899;28;20072;-77
2023/09/12 09:16:41;;;;;;;7.25;2.30;;;;;;;23.46;32.97;95034.50;5036173;28;20431;-78
2023/09/12 09:19:12;;;;;;;7.30;2.33;;;;;;;23.30;32.84;95034.88;5020124;28;20037;-78
2023/09/12 09:21:40;;;;;;;6.47;2.30;;;;;;;23.46;33.09;95037.16;5021866;28;20078;-78
2023/09/12 09:24:10;;;;;;;6.38;2.05;;;;;;;23.83;31.75;95034.97;5053208;28;20485;-78
2023/09/12 09:26:51;;;;;;;4.53;2.20;;;;;;;23.86;32.90;95034.56;5037069;28;20040;-78
2023/09/12 09:29:21;;;;;;;4.85;2.10;;;;;;;23.99;31.74;95029.25;5053362;28;20037;-78
2023/09/12 09:31:48;;;;;;;5.20;2.45;;;;;;;23.83;32.33;95029.66;5036726;28;20390;-78
2023/09/12 09:34:21;;;;;;;6.20;2.35;;;;;;;23.76;32.55;95013.72;5036711;28;20111;-77
2023/09/12 09:36:51;;;;;;;5.03;2.38;;;;;;;23.77;31.49;94996.81;5036871;28;20122;-78
2023/09/12 09:39:18;;;;;;;4.15;2.15;;;;;;;23.60;32.78;95012.28;5020262;28;20041;-77
2023/09/12 09:41:54;;;;;;;7.15;2.30;;;;;;;23.53;32.76;95022.06;5020172;28;20414;-78
2023/09/12 09:44:26;;;;;;;6.25;2.30;;;;;;;23.63;31.72;94998.63;5053207;28;20116;-78
2023/09/12 09:47:00;;;;;;;6.50;2.47;;;;;;;23.91;32.18;95013.53;5021006;28;20032;-79
2023/09/12 09:49:25;;;;;;;12.95;2.58;;;;;;;23.96;31.93;95004.97;5052980;28;20056;-78
2023/09/12 09:51:51;;;;;;;5.45;2.25;;;;;;;23.91;32.59;95002.13;5053269;28;20067;-79
2023/09/12 09:54:17;;;;;;;6.80;2.10;;;;;;;23.86;31.79;95005.38;5036237;28;20036;-78
2023/09/12 09:56:49;;;;;;;6.85;2.20;;;;;;;24.00;31.41;95004.34;5019721;28;20029;-78
2023/09/12 09:59:16;;;;;;;3.65;1.95;;;;;;;24.10;32.48;95006.59;5019734;28;20098;-78
2023/09/12 10:01:41;;;;;;;3.88;2.20;;;;;;;24.16;31.82;94999.66;5036301;28;20029;-79
2023/09/12 10:04:07;;;;;;;9.73;2.05;;;;;;;24.33;32.07;94992.88;5052770;28;20037;-78
2023/09/12 10:06:33;;;;;;;6.95;2.50;;;;;;;24.41;32.43;94992.66;5019915;28;20125;-78
2023/09/12 10:08:59;;;;;;;10.43;2.30;;;;;;;24.19;31.91;94983.31;5036090;28;20029;-79
2023/09/12 10:11:26;;;;;;;4.70;2.35;;;;;;;24.43;32.27;94982.69;5054021;28;20029;-77
2023/09/12 10:14:00;;;;;;;5.43;2.20;;;;;;;24.29;31.97;94983.69;5036128;28;20043;-78
2023/09/12 10:16:29;;;;;;;6.15;2.00;;;;;;;24.48;31.90;94974.06;5035142;28;20048;-78
2023/09/12 10:19:00;;;;;;;6.22;2.35;;;;;;;24.68;31.30;94980.13;5035657;28;20041;-78
2023/09/12 10:21:30;;;;;;;6.05;2.17;;;;;;;24.77;31.08;94980.72;5036087;28;20039;-78
2023/09/12 10:23:55;;;;;;;4.55;2.08;;;;;;;24.80;31.89;94976.81;5035792;28;20084;-78
2023/09/12 10:26:21;;;;;;;5.35;2.17;;;;;;;24.79;32.18;94973.31;5052041;28;20418;-78
2023/09/12 10:28:46;;;;;;;11.13;2.40;;;;;;;24.75;31.91;94961.50;5019091;28;20037;-77
2023/09/12 10:31:12;;;;;;;6.38;2.35;;;;;;;25.00;31.92;94969.56;5035415;28;20032;-78
2023/09/12 10:33:38;;;;;;;5.85;2.17;;;;;;;25.00;32.00;94971.41;5035591;28;20029;-78
2023/09/12 10:36:05;;;;;;;6.72;2.25;;;;;;;24.93;31.34;94964.28;5035776;28;20108;-77
2023/09/12 10:38:31;;;;;;;6.82;2.50;;;;;;;24.89;32.23;94965.72;5035490;28;20044;-78
2023/09/12 10:40:56;;;;;;;6.60;2.28;;;;;;;24.92;32.01;94953.88;5052133;28;20029;-78
2023/09/12 10:43:22;;;;;;;6.40;2.00;;;;;;;24.94;32.33;94957.94;5035404;28;20036;-78
2023/09/12 10:45:48;;;;;;;8.27;2.22;;;;;;;24.93;32.50;94953.66;5018755;28;20060;-78
2023/09/12 10:48:13;;;;;;;4.75;2.33;;;;;;;25.01;32.16;94946.47;5035248;28;20521;-77
2023/09/12 10:50:39;;;;;;;5.13;2.10;;;;;;;25.01;32.12;94941.13;5018591;28;20533;-79
2023/09/12 10:53:24;;;;;;;7.25;2.55;;;;;;;25.08;31.49;94942.75;5051943;28;20059;-77
2023/09/12 10:56:05;;;;;;;5.18;2.20;;;;;;;25.21;32.31;94941.03;5018927;28;20475;-78
2023/09/12 10:58:30;;;;;;;4.07;2.00;;;;;;;25.29;30.17;94930.16;5051595;28;20044;-78
2023/09/12 11:01:25;;;;;;;3.75;2.10;;;;;;;25.41;30.55;94923.94;5034864;28;20025;-79
2023/09/12 11:03:50;;;;;;;3.67;1.98;;;;;;;25.26;31.20;94919.94;5051513;28;20101;-77
2023/09/12 11:06:42;;;;;;;7.25;2.28;;;;;;;25.49;30.47;94922.03;5051261;28;20441;-78
2023/09/12 11:09:13;;;;;;;4.03;2.13;;;;;;;25.73;30.10;94920.41;5029803;28;20045;-78
2023/09/12 11:11:39;;;;;;;3.45;2.10;;;;;;;25.79;29.96;94916.84;5051297;28;20021;-79
2023/09/12 11:14:05;;;;;;;6.45;2.13;;;;;;;25.93;30.24;94920.25;5034838;28;20498;-79
2023/09/12 11:16:31;;;;;;;6.15;2.25;;;;;;;25.83;30.22;94918.91;5051086;28;20029;-79
2023/09/12 11:19:18;;;;;;;4.10;2.10;;;;;;;25.82;30.64;94911.09;5051017;28;20037;-79
2023/09/12 11:21:48;;;;;;;5.63;2.30;;;;;;;25.90;30.24;94913.50;5051123;28;20418;-78
2023/09/12 11:24:14;;;;;;;5.43;2.10;;;;;;;26.06;29.62;94894.31;5018439;28;20083;-78
2023/09/12 11:27:12;;;;;;;5.30;2.28;;;;;;;25.98;30.12;94893.78;5034743;28;20029;-79
2023/09/12 11:29:39;;;;;;;5.43;2.38;;;;;;;25.81;29.33;94890.84;4980906;28;20044;-78